Time;durP1;ratioP1;P1;durP2;ratioP2;P2;SDS_P1;SDS_P2;PMS_P1;PMS_P2;Temp;Humidity;BMP_temperature;BMP_pressure;BME280_temperature;BME280_humidity;BME280_pressure;Samples;Min_cycle;Max_cycle;Signal;HPM_P1;HPM_P2
2022/07/18 00:01:02;;;;;;;4.47;2.40;;;;;;;34.86;18.54;101221.06;5015598;28;20034;-73
2022/07/18 00:03:27;;;;;;;4.28;2.20;;;;;;;34.87;18.24;101222.63;5015567;28;20037;-73
2022/07/18 00:05:53;;;;;;;4.22;1.48;;;;;;;34.87;18.43;101237.44;5015409;28;20475;-74
2022/07/18 00:08:18;;;;;;;4.80;2.03;;;;;;;34.81;18.26;101222.97;5015238;28;20026;-72
2022/07/18 00:10:44;;;;;;;8.50;2.38;;;;;;;34.88;17.92;101218.28;5030231;28;20368;-73
2022/07/18 00:13:10;;;;;;;14.75;2.67;;;;;;;34.86;18.13;101218.91;5014919;28;20430;-73
2022/07/18 00:15:36;;;;;;;4.32;2.20;;;;;;;34.86;17.90;101215.94;5014945;28;20054;-74
2022/07/18 00:18:01;;;;;;;5.20;2.15;;;;;;;34.83;18.36;101205.34;5015146;28;20084;-74
2022/07/18 00:20:27;;;;;;;3.95;2.10;;;;;;;34.79;18.07;101207.22;5015136;28;20025;-73
2022/07/18 00:22:53;;;;;;;6.63;1.85;;;;;;;34.77;18.29;101210.84;5015116;28;20033;-73
2022/07/18 00:25:18;;;;;;;4.93;2.30;;;;;;;34.73;18.23;101203.84;5014888;28;20102;-73
2022/07/18 00:27:43;;;;;;;4.97;2.20;;;;;;;34.70;18.32;101199.16;5030065;28;20352;-74
2022/07/18 00:30:10;;;;;;;6.22;2.42;;;;;;;34.66;18.13;101199.63;5014673;28;20422;-73
2022/07/18 00:32:35;;;;;;;5.80;2.17;;;;;;;34.64;18.46;101197.28;5015008;28;20026;-74
2022/07/18 00:35:00;;;;;;;3.33;1.63;;;;;;;34.56;18.85;101210.72;5029883;28;20037;-73
2022/07/18 00:37:26;;;;;;;2.97;1.73;;;;;;;34.50;18.92;101204.34;5014771;28;20032;-73
2022/07/18 00:39:51;;;;;;;3.90;2.30;;;;;;;34.49;18.62;101208.72;5014580;28;20474;-73
2022/07/18 00:42:17;;;;;;;5.22;2.20;;;;;;;34.45;18.42;101212.16;5014187;28;20050;-73
2022/07/18 00:44:42;;;;;;;1.75;1.60;;;;;;;34.40;18.58;101207.34;5014517;28;20022;-73
2022/07/18 00:47:07;;;;;;;2.72;1.85;;;;;;;34.27;18.15;101213.78;5014439;28;20029;-73
2022/07/18 00:49:33;;;;;;;6.93;2.25;;;;;;;34.21;18.65;101217.06;5014746;28;20026;-74
2022/07/18 00:51:58;;;;;;;3.40;2.05;;;;;;;33.93;18.95;101206.03;5014525;28;20109;-73
2022/07/18 00:54:24;;;;;;;4.45;1.80;;;;;;;33.84;18.84;101209.78;5014247;28;20120;-73
2022/07/18 00:56:50;;;;;;;4.40;1.98;;;;;;;33.86;18.83;101209.16;5013582;28;20042;-73
2022/07/18 00:59:16;;;;;;;4.05;1.63;;;;;;;33.83;19.40;101211.97;5029353;28;20022;-73
2022/07/18 01:01:46;;;;;;;4.13;1.77;;;;;;;33.75;18.77;101211.34;5014391;28;20124;-73
2022/07/18 01:04:17;;;;;;;1.88;1.65;;;;;;;33.60;19.06;101210.84;5014157;28;20471;-74
2022/07/18 01:06:43;;;;;;;;;;;;;;;33.67;19.65;101212.88;5014370;28;20517;-73
2022/07/18 01:09:08;;;;;;;2.38;1.42;;;;;;;33.59;19.38;101203.38;5011529;28;19949;-72
2022/07/18 01:11:35;;;;;;;3.78;1.42;;;;;;;33.69;19.19;101210.09;5027174;28;20037;-74
2022/07/18 01:14:04;;;;;;;2.85;1.67;;;;;;;33.69;18.91;101207.16;5012158;28;20034;-73
2022/07/18 01:16:30;;;;;;;6.50;2.42;;;;;;;33.69;19.02;101213.06;5012006;28;20033;-73
2022/07/18 01:18:56;;;;;;;4.38;2.15;;;;;;;33.71;19.32;101213.97;5012037;28;20025;-73
2022/07/18 01:21:21;;;;;;;4.05;2.03;;;;;;;33.60;19.31;101213.81;5027220;28;20052;-73
2022/07/18 01:23:47;;;;;;;3.13;1.70;;;;;;;33.73;18.95;101214.16;5011321;28;20029;-74
2022/07/18 01:26:13;;;;;;;2.83;1.65;;;;;;;33.54;19.16;101223.00;5027091;28;20065;-74
2022/07/18 01:28:39;;;;;;;3.63;1.77;;;;;;;33.41;19.36;101208.66;5026874;28;20083;-74
2022/07/18 01:31:05;;;;;;;4.45;1.90;;;;;;;33.50;19.27;101218.94;5026884;28;20436;-74
2022/07/18 01:33:35;;;;;;;1.92;1.63;;;;;;;33.51;19.38;101218.31;5027254;28;20026;-72
2022/07/18 01:36:01;;;;;;;2.25;1.70;;;;;;;33.26;19.29;101220.75;5010663;28;20077;-73
2022/07/18 01:38:29;;;;;;;5.97;2.22;;;;;;;33.10;19.77;101225.38;5011460;28;20029;-73
2022/07/18 01:40:55;;;;;;;3.85;2.13;;;;;;;33.30;19.34;101221.84;5012575;28;20046;-72
2022/07/18 01:43:21;;;;;;;3.38;1.95;;;;;;;33.29;19.61;101226.22;5012582;28;20030;-74
2022/07/18 01:45:46;;;;;;;4.32;1.85;;;;;;;32.99;20.08;101220.84;5013608;28;20367;-74
2022/07/18 01:48:12;;;;;;;2.72;1.60;;;;;;;32.78;20.52;101223.53;5012439;28;20030;-72
2022/07/18 01:50:37;;;;;;;6.60;2.17;;;;;;;32.66;20.30;101222.56;5013626;28;20025;-73
2022/07/18 01:53:03;;;;;;;4.40;1.85;;;;;;;32.72;20.57;101214.97;5028743;28;20080;-73
2022/07/18 01:55:28;;;;;;;5.00;2.83;;;;;;;32.86;20.13;101224.97;5013722;28;20486;-73
2022/07/18 01:57:53;;;;;;;2.95;1.85;;;;;;;32.82;20.31;101227.59;5013517;28;20034;-72
2022/07/18 02:00:19;;;;;;;3.15;1.77;;;;;;;32.84;20.25;101229.94;5012274;28;20052;-73
2022/07/18 02:02:44;;;;;;;6.43;2.33;;;;;;;32.98;20.25;101228.91;5013554;28;20442;-73
2022/07/18 02:05:10;;;;;;;4.22;1.92;;;;;;;33.13;19.79;101230.03;5013513;28;20467;-73
2022/07/18 02:07:37;;;;;;;3.40;2.15;;;;;;;33.17;20.05;101227.44;5013278;28;20026;-73
2022/07/18 02:10:10;;;;;;;3.47;1.80;;;;;;;33.04;20.13;101234.53;5016494;28;20498;-73
2022/07/18 02:12:36;;;;;;;3.55;1.98;;;;;;;33.01;19.98;101240.91;5017357;28;20386;-74
2022/07/18 02:15:03;;;;;;;4.13;1.80;;;;;;;32.99;20.06;101232.63;5015957;28;20037;-73
2022/07/18 02:17:29;;;;;;;3.33;1.60;;;;;;;32.90;20.16;101230.44;5017836;28;20033;-73
2022/07/18 02:19:54;;;;;;;6.63;1.75;;;;;;;32.95;20.16;101238.22;5017270;28;20022;-73
2022/07/18 02:22:20;;;;;;;2.67;1.92;;;;;;;32.96;20.16;101242.72;5017082;28;20033;-74
2022/07/18 02:24:45;;;;;;;3.25;1.95;;;;;;;32.89;20.23;101240.69;5032429;28;20047;-73
2022/07/18 02:27:10;;;;;;;5.70;2.15;;;;;;;32.92;20.24;101242.41;5032483;28;20080;-72
2022/07/18 02:29:37;;;;;;;3.53;2.20;;;;;;;32.78;20.13;101233.19;5016894;28;20054;-73
2022/07/18 02:32:02;;;;;;;4.28;2.05;;;;;;;32.89;20.58;101240.69;5032451;28;20056;-73
2022/07/18 02:34:28;;;;;;;3.10;1.83;;;;;;;33.11;19.96;101244.63;5032218;28;20133;-74
2022/07/18 02:36:53;;;;;;;4.20;2.35;;;;;;;33.02;20.10;101240.25;5032146;28;20029;-72
2022/07/18 02:39:19;;;;;;;3.67;1.75;;;;;;;33.26;19.58;101238.47;5032574;28;20025;-73
2022/07/18 02:41:45;;;;;;;4.32;1.80;;;;;;;33.17;20.29;101236.28;5016702;28;20491;-73
2022/07/18 02:44:11;;;;;;;5.82;2.15;;;;;;;33.14;20.09;101237.50;5016946;28;20030;-72
2022/07/18 02:46:36;;;;;;;2.67;2.10;;;;;;;33.19;19.75;101227.59;5017135;28;20072;-73
2022/07/18 02:49:02;;;;;;;3.67;1.80;;;;;;;33.21;19.72;101221.84;5016712;28;20033;-73
2022/07/18 02:51:27;;;;;;;4.13;1.80;;;;;;;33.41;19.58;101227.16;5016637;28;20461;-74
2022/07/18 02:53:53;;;;;;;7.60;1.92;;;;;;;33.52;19.38;101222.81;5016881;28;20071;-73
2022/07/18 02:56:18;;;;;;;2.10;1.75;;;;;;;33.28;19.86;101227.63;5016845;28;20112;-73
2022/07/18 02:58:44;;;;;;;6.68;2.35;;;;;;;33.35;19.63;101229.63;5031877;28;20022;-73
2022/07/18 03:01:09;;;;;;;4.97;1.80;;;;;;;33.50;19.87;101231.50;5015520;28;20050;-72
2022/07/18 03:03:35;;;;;;;3.67;1.92;;;;;;;33.67;19.55;101224.69;5016410;28;20447;-73
2022/07/18 03:06:00;;;;;;;2.35;1.77;;;;;;;33.67;19.93;101228.47;5016300;28;20022;-73
2022/07/18 03:08:25;;;;;;;4.15;2.08;;;;;;;33.73;19.22;101220.06;5016476;28;20435;-72
2022/07/18 03:10:51;;;;;;;6.78;2.03;;;;;;;33.82;19.61;101222.22;5016690;28;20033;-73
2022/07/18 03:13:17;;;;;;;5.80;1.67;;;;;;;33.95;19.50;101220.97;5031442;28;20436;-72
2022/07/18 03:15:42;;;;;;;5.57;1.77;;;;;;;33.81;19.27;101219.91;5016330;28;20022;-73
2022/07/18 03:18:09;;;;;;;6.38;2.55;;;;;;;33.79;19.31;101223.50;5016074;28;20033;-73
2022/07/18 03:20:35;;;;;;;3.97;1.90;;;;;;;33.85;19.41;101222.41;5015935;28;20068;-72
2022/07/18 03:23:06;;;;;;;3.42;1.90;;;;;;;33.94;19.24;101230.47;5031207;28;20029;-73
2022/07/18 03:25:33;;;;;;;3.85;1.83;;;;;;;33.85;19.58;101226.09;5015195;28;20030;-73
2022/07/18 03:28:00;;;;;;;2.25;1.52;;;;;;;33.94;19.34;101230.47;5031381;28;20069;-73
2022/07/18 03:30:28;;;;;;;3.22;1.98;;;;;;;34.05;19.45;101226.88;5031226;28;20111;-74
2022/07/18 03:32:56;;;;;;;2.92;1.70;;;;;;;33.97;18.84;101223.31;5031124;28;20022;-73
2022/07/18 03:35:21;;;;;;;5.13;1.92;;;;;;;34.14;19.17;101229.06;5016015;28;20029;-74
2022/07/18 03:37:49;;;;;;;5.82;2.13;;;;;;;34.03;19.29;101230.47;5016110;28;20379;-73
2022/07/18 03:40:16;;;;;;;3.08;1.73;;;;;;;34.00;19.22;101222.81;5014537;28;20410;-73
2022/07/18 03:42:44;;;;;;;2.22;1.60;;;;;;;34.10;19.60;101229.50;5011072;28;20093;-72
2022/07/18 03:45:10;;;;;;;5.60;2.20;;;;;;;34.07;19.73;101224.84;4996356;28;20034;-73
2022/07/18 03:47:35;;;;;;;3.83;1.95;;;;;;;34.19;19.07;101219.88;5011189;28;20034;-73
2022/07/18 03:50:02;;;;;;;2.47;1.63;;;;;;;34.39;19.51;101231.69;5011180;28;20046;-74
2022/07/18 03:52:27;;;;;;;4.93;1.80;;;;;;;34.56;18.75;101241.13;4995985;28;20073;-73
2022/07/18 03:54:54;;;;;;;5.35;2.85;;;;;;;34.73;19.19;101239.38;4996260;28;20038;-73
2022/07/18 03:57:21;;;;;;;6.97;2.20;;;;;;;34.93;19.19;101232.72;4996252;28;20030;-73
2022/07/18 03:59:47;;;;;;;3.50;2.08;;;;;;;34.93;18.55;101231.97;4995802;28;20030;-72
2022/07/18 04:02:16;;;;;;;2.17;1.45;;;;;;;34.98;18.99;101233.81;4995738;28;20031;-74
2022/07/18 04:04:41;;;;;;;3.00;2.08;;;;;;;35.01;18.46;101230.34;5010815;28;20022;-74
2022/07/18 04:07:07;;;;;;;4.63;1.75;;;;;;;35.22;18.61;101243.69;4996201;28;20387;-73
2022/07/18 04:09:33;;;;;;;3.88;1.70;;;;;;;35.33;18.58;101248.91;4995912;28;20495;-74
2022/07/18 04:12:00;;;;;;;2.38;1.48;;;;;;;35.59;18.40;101247.00;5010837;28;20471;-73
2022/07/18 04:14:27;;;;;;;4.72;1.77;;;;;;;35.47;17.84;101235.09;4995750;28;20274;-73
2022/07/18 04:16:53;;;;;;;4.45;2.58;;;;;;;35.68;18.53;101229.16;4995875;28;20053;-73
2022/07/18 04:19:23;;;;;;;2.63;1.70;;;;;;;36.06;17.58;101230.25;4994306;28;20170;-73
2022/07/18 04:21:49;;;;;;;2.58;1.40;;;;;;;36.25;18.00;101233.03;5010724;28;20108;-73
2022/07/18 04:24:15;;;;;;;4.03;1.75;;;;;;;36.40;17.86;101226.63;4994379;28;20050;-73
2022/07/18 04:26:42;;;;;;;3.13;1.67;;;;;;;36.54;17.51;101224.59;4994217;28;20034;-74
2022/07/18 04:29:10;;;;;;;3.58;1.92;;;;;;;36.87;17.26;101223.72;5010683;28;20038;-73
2022/07/18 04:31:35;;;;;;;5.00;2.17;;;;;;;36.86;16.66;101217.00;4994388;28;20109;-75
2022/07/18 04:34:00;;;;;;;3.50;1.85;;;;;;;36.87;17.00;101217.78;4995580;28;20177;-74
2022/07/18 04:36:27;;;;;;;3.88;2.22;;;;;;;37.18;17.23;101219.09;4996026;28;20065;-74
2022/07/18 04:38:53;;;;;;;3.58;2.28;;;;;;;37.44;17.16;101216.19;5010181;28;20042;-74
2022/07/18 04:41:22;;;;;;;4.53;1.55;;;;;;;37.61;16.72;101207.63;5003491;28;20103;-73
2022/07/18 04:43:48;;;;;;;3.22;1.52;;;;;;;37.82;16.84;101211.81;5014531;28;20040;-74
2022/07/18 04:46:15;;;;;;;2.67;1.30;;;;;;;37.81;16.73;101210.25;5014831;28;20018;-73
2022/07/18 04:48:41;;;;;;;3.03;1.48;;;;;;;37.94;16.62;101207.34;5013322;28;20079;-73
2022/07/18 04:51:08;;;;;;;2.30;1.90;;;;;;;37.98;16.55;101206.84;5014578;28;20030;-73
2022/07/18 04:53:36;;;;;;;2.70;1.20;;;;;;;37.99;16.67;101215.13;5014429;28;20471;-74
2022/07/18 04:56:03;;;;;;;6.18;1.95;;;;;;;37.80;16.55;101214.66;5014335;28;20076;-74
2022/07/18 04:58:29;;;;;;;15.07;2.40;;;;;;;37.84;16.79;101208.97;5013002;28;20069;-73
2022/07/18 05:00:55;;;;;;;5.60;2.10;;;;;;;37.93;16.80;101202.84;5014412;28;20463;-74
2022/07/18 05:03:21;;;;;;;11.25;1.85;;;;;;;38.17;16.23;101208.69;5014273;28;20113;-73
2022/07/18 05:05:48;;;;;;;7.78;2.45;;;;;;;38.29;16.34;101216.13;5029842;28;20061;-73
2022/07/18 05:08:14;;;;;;;5.03;2.42;;;;;;;38.32;16.09;101205.13;5024798;28;20033;-73
2022/07/18 05:10:40;;;;;;;11.45;2.13;;;;;;;38.37;16.21;101209.88;5036729;28;20044;-74
2022/07/18 05:13:07;;;;;;;8.98;2.15;;;;;;;38.51;16.44;101206.94;5038947;28;20026;-73
2022/07/18 05:15:34;;;;;;;5.80;2.33;;;;;;;38.49;15.83;101210.59;5033484;28;20396;-73
2022/07/18 05:18:01;;;;;;;5.70;2.22;;;;;;;38.57;15.65;101205.09;5021815;28;20542;-72
2022/07/18 05:20:28;;;;;;;4.90;2.08;;;;;;;38.66;15.86;101209.31;5022843;28;20482;-75
2022/07/18 05:22:55;;;;;;;5.22;2.38;;;;;;;38.64;15.89;101212.94;5019417;28;20044;-75
2022/07/18 05:25:22;;;;;;;4.82;2.05;;;;;;;38.62;15.49;101206.09;5028596;28;20056;-75
2022/07/18 05:27:50;;;;;;;5.68;2.20;;;;;;;38.66;15.50;101213.06;5003992;28;20084;-75
2022/07/18 05:30:16;;;;;;;7.07;2.20;;;;;;;38.90;15.59;101207.69;5027096;28;20097;-76
2022/07/18 05:32:57;;;;;;;5.93;2.30;;;;;;;39.58;15.42;101213.63;5033779;28;20029;-75
2022/07/18 05:35:24;;;;;;;5.73;2.60;;;;;;;40.13;15.58;101202.31;5032126;28;20160;-74
2022/07/18 05:37:50;;;;;;;3.75;2.17;;;;;;;40.72;14.77;101199.25;5033552;28;20034;-75
2022/07/18 05:40:24;;;;;;;4.25;1.67;;;;;;;41.26;14.31;101188.28;5032299;28;20057;-74
2022/07/18 05:42:51;;;;;;;7.45;2.30;;;;;;;41.80;14.43;101196.69;5033592;28;20033;-74
2022/07/18 05:45:17;;;;;;;9.02;2.25;;;;;;;42.18;14.60;101193.81;5033160;28;20037;-74
2022/07/18 05:47:42;;;;;;;5.38;2.00;;;;;;;42.61;13.73;101191.09;5033735;28;20037;-74
2022/07/18 05:50:08;;;;;;;6.35;1.70;;;;;;;42.94;13.00;101192.38;5048752;28;20029;-74
2022/07/18 05:52:34;;;;;;;8.02;2.25;;;;;;;43.35;13.17;101182.66;5032875;28;20037;-73
2022/07/18 05:55:00;;;;;;;5.30;2.20;;;;;;;43.65;13.02;101183.00;5029958;28;20113;-73
2022/07/18 05:57:26;;;;;;;6.72;2.10;;;;;;;43.92;12.48;101179.44;5030243;28;20025;-73
2022/07/18 05:59:51;;;;;;;15.30;3.08;;;;;;;44.25;12.63;101173.06;5031635;28;20079;-73
2022/07/18 06:02:17;;;;;;;6.88;2.17;;;;;;;44.72;12.28;101178.31;5031514;28;20029;-74
2022/07/18 06:04:42;;;;;;;4.80;1.90;;;;;;;44.86;11.79;101171.19;5019836;28;20014;-73
2022/07/18 06:07:07;;;;;;;3.63;1.98;;;;;;;45.07;11.88;101168.09;5022282;28;20374;-73
2022/07/18 06:09:33;;;;;;;2.70;2.13;;;;;;;45.55;11.87;101170.91;5020668;28;20379;-73
2022/07/18 06:11:59;;;;;;;4.00;1.42;;;;;;;45.96;11.40;101166.72;5019996;28;20018;-73
2022/07/18 06:14:26;;;;;;;5.13;1.65;;;;;;;46.73;10.68;101171.56;5023552;28;20112;-73
2022/07/18 06:16:52;;;;;;;3.97;1.45;;;;;;;48.00;10.28;101161.25;5022302;28;20021;-73
2022/07/18 06:19:17;;;;;;;9.02;2.80;;;;;;;48.90;9.95;101173.13;5023436;28;20040;-74
2022/07/18 06:21:42;;;;;;;2.05;1.23;;;;;;;49.27;9.21;101168.28;5042459;28;20065;-74
2022/07/18 06:24:08;;;;;;;13.60;2.70;;;;;;;49.01;8.95;101165.69;5020717;28;20113;-73
2022/07/18 06:26:33;;;;;;;12.95;2.63;;;;;;;48.86;9.11;101164.00;5026011;28;20025;-74
2022/07/18 06:28:59;;;;;;;4.68;1.50;;;;;;;49.87;9.41;101156.03;5032467;28;20482;-78
2022/07/18 06:31:24;;;;;;;5.95;1.13;;;;;;;51.33;8.81;101150.69;5030121;28;20095;-75
2022/07/18 06:33:49;;;;;;;3.13;1.42;;;;;;;53.64;7.38;101147.00;5029275;28;20013;-73
2022/07/18 06:36:15;;;;;;;3.20;1.48;;;;;;;55.65;6.96;101143.03;5028008;28;20497;-74
2022/07/18 06:38:41;;;;;;;11.05;2.45;;;;;;;57.26;5.48;101119.03;5030893;28;20028;-74
2022/07/18 06:41:07;;;;;;;5.57;1.42;;;;;;;58.76;4.87;101128.72;5030494;28;20041;-74
2022/07/18 06:43:33;;;;;;;4.88;1.40;;;;;;;60.14;4.36;101111.00;5032584;28;20033;-75
2022/07/18 06:45:59;;;;;;;3.53;1.00;;;;;;;61.12;4.37;101109.44;5030981;28;20383;-74
2022/07/18 06:48:24;;;;;;;1.90;1.27;;;;;;;61.55;2.89;101092.19;5017562;28;20033;-76
2022/07/18 06:50:49;;;;;;;5.47;1.60;;;;;;;62.74;3.72;101095.94;5031295;28;20029;-74
2022/07/18 06:53:15;;;;;;;3.47;0.82;;;;;;;63.36;2.74;101081.25;5031282;28;20032;-74
2022/07/18 06:55:40;;;;;;;2.35;0.90;;;;;;;64.05;1.75;101090.72;5030113;28;20032;-74
2022/07/18 06:58:06;;;;;;;5.82;1.27;;;;;;;64.62;1.92;101088.28;5016408;28;20518;-76
2022/07/18 07:00:31;;;;;;;5.20;1.00;;;;;;;65.41;2.65;101082.84;5014952;28;20038;-74
2022/07/18 07:02:56;;;;;;;3.22;1.20;;;;;;;66.15;1.77;101077.41;5016740;28;20034;-75
2022/07/18 07:05:22;;;;;;;4.00;1.30;;;;;;;66.68;1.88;101073.94;5016002;28;20061;-74
2022/07/18 07:07:48;;;;;;;2.80;0.95;;;;;;;66.84;0.26;101063.50;5016414;28;20029;-73
2022/07/18 07:10:15;;;;;;;3.35;0.95;;;;;;;66.26;1.21;101055.72;5031478;28;20510;-76
2022/07/18 07:12:43;;;;;;;2.28;1.20;;;;;;;66.93;1.01;101061.34;5015726;28;20021;-77
2022/07/18 07:15:09;;;;;;;2.70;1.00;;;;;;;67.83;0.18;101062.78;5016047;28;20061;-75
2022/07/18 07:17:35;;;;;;;1.52;0.90;;;;;;;68.30;0.40;101062.50;5016388;28;20026;-75
2022/07/18 07:20:02;;;;;;;1.88;0.90;;;;;;;68.49;0.29;101059.50;5031629;28;20028;-78
2022/07/18 07:22:27;;;;;;;4.18;1.08;;;;;;;68.78;0.00;101043.22;5035713;28;20033;-74
2022/07/18 07:24:53;;;;;;;23.50;4.53;;;;;;;69.14;0.00;101042.75;5035246;28;20026;-75
2022/07/18 07:27:18;;;;;;;3.95;1.83;;;;;;;68.96;0.00;101035.56;5035795;28;20025;-76
2022/07/18 07:29:43;;;;;;;3.88;1.30;;;;;;;69.23;0.00;101039.75;5035575;28;20036;-75
2022/07/18 07:32:09;;;;;;;5.75;1.70;;;;;;;69.25;0.00;101027.81;5033656;28;20117;-74
2022/07/18 07:34:34;;;;;;;2.13;0.90;;;;;;;68.60;0.00;101032.84;5034099;28;20025;-75
2022/07/18 07:37:00;;;;;;;8.93;1.50;;;;;;;69.02;0.00;101028.09;5034304;28;20421;-74
2022/07/18 07:39:27;;;;;;;5.68;1.30;;;;;;;69.20;0.00;101029.78;5035531;28;20030;-75
2022/07/18 07:41:52;;;;;;;33.72;6.47;;;;;;;69.12;0.00;101027.31;5035277;28;20045;-75
2022/07/18 07:44:19;;;;;;;4.57;1.20;;;;;;;68.73;0.00;101028.81;5035338;28;20053;-74
2022/07/18 07:46:44;;;;;;;2.83;0.90;;;;;;;69.22;0.00;101028.91;5035347;28;20045;-73
2022/07/18 07:49:09;;;;;;;1.50;0.70;;;;;;;69.42;0.00;101008.56;5035075;28;20029;-74
2022/07/18 07:51:35;;;;;;;2.22;0.88;;;;;;;69.91;0.00;101017.09;5035254;28;20038;-75
2022/07/18 07:54:01;;;;;;;2.60;1.83;;;;;;;70.24;0.00;101022.09;5035170;28;20474;-76
2022/07/18 07:56:26;;;;;;;1.48;0.70;;;;;;;70.44;0.00;101010.28;5035110;28;20463;-76
2022/07/18 07:58:52;;;;;;;3.20;1.10;;;;;;;70.73;0.00;101015.59;5035441;28;20033;-75
2022/07/18 08:01:19;;;;;;;4.60;1.05;;;;;;;70.67;0.00;101007.47;5035168;28;20030;-72
2022/07/18 08:03:48;;;;;;;2.70;1.05;;;;;;;70.72;0.00;100997.75;5030283;28;20395;-75
2022/07/18 08:06:13;;;;;;;2.37;0.70;;;;;;;69.02;0.00;101000.75;5034891;28;20026;-73
2022/07/18 08:08:39;;;;;;;0.60;0.50;;;;;;;68.61;0.00;101008.63;5034412;28;20378;-74
2022/07/18 08:11:04;;;;;;;1.65;0.70;;;;;;;68.70;0.00;101003.28;5034155;28;20152;-77
2022/07/18 08:13:30;;;;;;;3.70;1.08;;;;;;;68.59;0.00;101000.16;5034572;28;20048;-72
2022/07/18 08:15:55;;;;;;;1.88;0.98;;;;;;;68.82;0.00;101011.69;5034828;28;20048;-71
2022/07/18 08:18:21;;;;;;;2.65;0.70;;;;;;;68.77;0.00;101003.53;5033668;28;20465;-74
2022/07/18 08:20:47;;;;;;;3.38;1.00;;;;;;;68.09;0.00;100998.53;5033741;28;20107;-73
2022/07/18 08:23:12;;;;;;;3.45;1.20;;;;;;;67.63;0.00;100995.72;5049915;28;20483;-74
2022/07/18 08:25:40;;;;;;;3.85;0.80;;;;;;;67.00;0.00;100993.94;5034578;28;20021;-75
2022/07/18 08:28:10;;;;;;;3.17;1.00;;;;;;;66.72;0.23;100999.03;5034655;28;20032;-74
2022/07/18 08:30:37;;;;;;;1.05;0.60;;;;;;;66.71;0.00;100985.81;5033460;28;20040;-75
2022/07/18 08:33:03;;;;;;;1.13;0.90;;;;;;;66.59;0.00;100992.88;5016678;28;20025;-75
2022/07/18 08:35:30;;;;;;;3.58;1.00;;;;;;;66.79;0.37;100994.59;5034157;28;20026;-75
2022/07/18 08:37:55;;;;;;;5.43;1.10;;;;;;;66.63;0.15;100991.84;5033232;28;20032;-74
2022/07/18 08:40:21;;;;;;;5.32;0.90;;;;;;;66.10;0.00;100995.38;5032970;28;20367;-73
2022/07/18 08:42:49;;;;;;;2.08;0.70;;;;;;;65.63;0.40;100991.41;5034237;28;20048;-74
2022/07/18 08:45:15;;;;;;;2.90;1.13;;;;;;;65.02;0.00;100994.44;5016399;28;20022;-74
2022/07/18 08:47:40;;;;;;;5.00;1.00;;;;;;;64.20;0.16;101003.91;5032829;28;20036;-74
2022/07/18 08:50:06;;;;;;;1.40;1.00;;;;;;;63.88;0.46;100991.72;5032876;28;20463;-74
2022/07/18 08:52:32;;;;;;;3.13;0.60;;;;;;;63.74;0.73;100996.34;5034416;28;20459;-74
2022/07/18 08:54:58;;;;;;;5.03;0.95;;;;;;;63.29;0.00;101006.53;5031546;28;20045;-74
2022/07/18 08:57:24;;;;;;;4.07;0.90;;;;;;;62.49;0.35;100996.69;5034203;28;20026;-75
2022/07/18 08:59:49;;;;;;;2.30;0.70;;;;;;;62.21;0.44;100992.63;5033821;28;20429;-77
2022/07/18 09:02:15;;;;;;;2.22;0.98;;;;;;;61.72;0.79;100993.41;5033692;28;20482;-75
2022/07/18 09:04:42;;;;;;;1.63;0.85;;;;;;;60.92;1.57;100992.31;5033682;28;20451;-75
2022/07/18 09:07:09;;;;;;;6.18;1.75;;;;;;;60.77;1.27;100999.09;5049339;28;20030;-75
2022/07/18 09:09:38;;;;;;;2.53;1.00;;;;;;;59.97;0.82;100999.97;5016440;28;20021;-73
2022/07/18 09:12:09;;;;;;;1.25;0.70;;;;;;;59.26;1.77;100998.75;5033688;28;20025;-75
2022/07/18 09:14:40;;;;;;;2.88;0.90;;;;;;;58.30;1.79;101001.06;5033567;28;20466;-73
2022/07/18 09:17:28;;;;;;;3.38;1.17;;;;;;;58.08;2.13;101008.66;5033407;28;20030;-75
2022/07/18 09:20:14;;;;;;;4.80;1.00;;;;;;;57.63;2.80;101018.38;5033514;28;20064;-76
2022/07/18 09:22:41;;;;;;;10.68;1.50;;;;;;;57.27;3.37;101016.28;5032511;28;20036;-76
2022/07/18 09:25:11;;;;;;;5.00;0.70;;;;;;;56.82;3.19;101011.25;5033393;28;20025;-75
2022/07/18 09:27:44;;;;;;;;;;;;;;;56.42;3.23;101012.94;5032739;28;20028;-77
2022/07/18 09:30:24;;;;;;;3.38;0.98;;;;;;;55.98;2.84;101017.69;5048696;28;19908;-74
2022/07/18 09:33:10;;;;;;;1.48;0.80;;;;;;;55.78;2.70;101012.72;5033762;28;20091;-74
2022/07/18 09:35:45;;;;;;;1.98;1.02;;;;;;;54.90;3.29;101003.56;5015896;28;20056;-74
2022/07/18 09:38:14;;;;;;;5.05;1.30;;;;;;;54.54;3.58;101001.03;5033786;28;20471;-74
2022/07/18 09:40:46;;;;;;;0.50;0.50;;;;;;;54.31;3.42;101005.94;5033601;28;20057;-75
2022/07/18 09:43:14;;;;;;;1.00;0.80;;;;;;;53.98;3.17;101005.59;5033643;28;20036;-72
2022/07/18 09:45:44;;;;;;;1.40;0.75;;;;;;;53.82;3.55;101010.34;5048978;28;20030;-80
2022/07/18 09:48:15;;;;;;;3.65;1.38;;;;;;;53.65;4.57;101008.97;5033585;28;20037;-77
2022/07/18 09:50:43;;;;;;;4.40;1.25;;;;;;;53.65;4.13;101002.88;5032271;28;20112;-78
2022/07/18 09:53:23;;;;;;;5.95;1.50;;;;;;;53.62;4.05;101009.78;5033164;28;20209;-84
2022/07/18 09:56:11;;;;;;;4.72;0.82;;;;;;;53.33;4.15;101010.06;5030565;28;20107;-81
2022/07/18 09:58:42;;;;;;;4.60;1.20;;;;;;;53.17;4.59;101003.34;5031103;28;20029;-80
2022/07/18 10:01:09;;;;;;;4.65;1.77;;;;;;;53.04;5.72;101005.72;5031658;28;20025;-80
2022/07/18 10:03:35;;;;;;;12.73;2.30;;;;;;;53.04;5.00;101006.44;5032172;28;20360;-83
2022/07/18 10:06:01;;;;;;;13.85;2.30;;;;;;;53.11;4.76;101012.53;5032386;28;20037;-83
2022/07/18 10:08:30;;;;;;;3.50;0.90;;;;;;;53.17;4.71;101006.38;5031520;28;20037;-76
2022/07/18 10:10:59;;;;;;;3.42;1.05;;;;;;;52.84;5.21;101002.84;5031454;28;20080;-77
2022/07/18 10:13:25;;;;;;;3.45;1.27;;;;;;;52.63;6.38;101014.38;5031324;28;20033;-73
2022/07/18 10:15:51;;;;;;;2.22;1.73;;;;;;;52.46;6.01;101007.59;5031453;28;20036;-74
2022/07/18 10:18:19;;;;;;;6.57;1.48;;;;;;;52.08;6.00;101016.88;5032352;28;20025;-71
2022/07/18 10:20:47;;;;;;;3.40;1.40;;;;;;;51.76;5.49;101002.53;5032934;28;20029;-72
2022/07/18 10:23:18;;;;;;;0.93;0.80;;;;;;;51.49;6.29;101007.13;5032907;28;20466;-74
2022/07/18 10:25:45;;;;;;;2.92;0.85;;;;;;;50.80;5.34;101010.13;5031796;28;20466;-71
2022/07/18 10:28:12;;;;;;;2.97;0.93;;;;;;;50.71;6.41;101017.66;5032977;28;20029;-72
2022/07/18 10:30:42;;;;;;;2.00;1.00;;;;;;;49.92;6.57;101012.03;5033976;28;20041;-73
2022/07/18 10:33:56;;;;;;;2.53;0.98;;;;;;;49.68;7.32;101006.56;5036748;28;20463;-74
2022/07/18 10:36:23;;;;;;;7.40;1.80;;;;;;;49.21;7.00;101022.81;5017374;28;20050;-73
2022/07/18 10:39:10;;;;;;;2.45;0.70;;;;;;;49.40;6.18;101008.59;5036992;28;20442;-71
2022/07/18 10:41:38;;;;;;;6.90;1.70;;;;;;;49.39;6.15;101010.88;5034334;28;20049;-77
2022/07/18 10:44:22;;;;;;;4.75;0.98;;;;;;;49.29;5.73;101011.53;5036896;28;20033;-80
2022/07/18 10:47:03;;;;;;;4.75;1.20;;;;;;;49.26;6.28;101000.16;5037002;28;20485;-78
2022/07/18 10:49:47;;;;;;;3.25;1.20;;;;;;;49.20;6.36;101009.19;5038546;28;20055;-79
2022/07/18 10:52:33;;;;;;;3.22;1.05;;;;;;;49.43;7.05;101001.06;5036569;28;20041;-83
2022/07/18 10:55:16;;;;;;;1.88;1.27;;;;;;;48.55;7.03;100993.38;5038489;28;20057;-82
2022/07/18 10:57:50;;;;;;;3.05;1.20;;;;;;;48.85;6.52;101002.78;5037017;28;20041;-77
2022/07/18 11:00:37;;;;;;;12.57;1.85;;;;;;;49.34;5.87;101006.28;5037044;28;20037;-78
2022/07/18 11:03:05;;;;;;;5.35;1.23;;;;;;;49.54;5.94;101000.38;5069157;28;20036;-77
2022/07/18 11:05:31;;;;;;;5.05;1.40;;;;;;;49.57;6.18;100998.13;5035163;28;20025;-75
2022/07/18 11:07:59;;;;;;;3.03;1.50;;;;;;;49.27;5.57;100995.63;5036194;28;20112;-77
2022/07/18 11:10:47;;;;;;;7.43;1.38;;;;;;;49.12;6.17;100990.94;5036079;28;20470;-78
2022/07/18 11:13:25;;;;;;;1.33;0.90;;;;;;;49.00;6.30;100981.75;5035960;28;20390;-78
2022/07/18 11:16:12;;;;;;;6.43;1.45;;;;;;;48.90;6.40;100976.34;5035964;28;20040;-76
2022/07/18 11:18:41;;;;;;;3.38;1.70;;;;;;;49.10;5.88;100988.66;5036057;28;20040;-77
2022/07/18 11:21:18;;;;;;;2.85;1.23;;;;;;;48.83;6.10;100977.81;5035880;28;20526;-72
2022/07/18 11:23:49;;;;;;;2.20;1.08;;;;;;;48.81;5.64;100974.75;5035703;28;20033;-71
2022/07/18 11:26:20;;;;;;;1.42;1.10;;;;;;;48.93;6.90;100959.72;5035846;28;20029;-71
2022/07/18 11:28:48;;;;;;;3.92;0.95;;;;;;;48.98;6.47;100964.31;5021021;28;20092;-75
2022/07/18 11:31:15;;;;;;;2.58;0.90;;;;;;;48.96;6.12;100964.28;5031728;28;20040;-78